sensor_id;sensor_type;location;lat;lon;timestamp;temperature;humidity
22145;DHT22;11238;48.730;11.566;2023-02-14T00:00:17;3.50;99.90
22145;DHT22;11238;48.730;11.566;2023-02-14T00:02:43;3.40;99.90
22145;DHT22;11238;48.730;11.566;2023-02-14T00:05:09;3.40;99.90
22145;DHT22;11238;48.730;11.566;2023-02-14T00:07:35;3.30;99.90
22145;DHT22;11238;48.730;11.566;2023-02-14T00:10:02;3.30;99.90
22145;DHT22;11238;48.730;11.566;2023-02-14T00:12:27;3.30;99.90
22145;DHT22;11238;48.730;11.566;2023-02-14T00:14:53;3.20;99.90
22145;DHT22;11238;48.730;11.566;2023-02-14T00:17:38;3.20;99.90
22145;DHT22;11238;48.730;11.566;2023-02-14T00:20:04;3.30;99.90
22145;DHT22;11238;48.730;11.566;2023-02-14T00:22:30;3.30;99.90
22145;DHT22;11238;48.730;11.566;2023-02-14T00:24:55;3.20;99.90
22145;DHT22;11238;48.730;11.566;2023-02-14T00:27:22;3.20;99.90
22145;DHT22;11238;48.730;11.566;2023-02-14T00:29:48;3.30;99.90
22145;DHT22;11238;48.730;11.566;2023-02-14T00:32:14;3.30;99.90
22145;DHT22;11238;48.730;11.566;2023-02-14T00:34:40;3.30;99.90
22145;DHT22;11238;48.730;11.566;2023-02-14T00:37:09;3.20;99.90
22145;DHT22;11238;48.730;11.566;2023-02-14T00:39:35;3.20;99.90
22145;DHT22;11238;48.730;11.566;2023-02-14T00:42:00;3.30;99.90
22145;DHT22;11238;48.730;11.566;2023-02-14T00:44:26;3.20;99.90
22145;DHT22;11238;48.730;11.566;2023-02-14T00:47:14;3.10;99.90
22145;DHT22;11238;48.730;11.566;2023-02-14T00:49:40;3.00;99.90
22145;DHT22;11238;48.730;11.566;2023-02-14T00:52:05;3.00;99.90
22145;DHT22;11238;48.730;11.566;2023-02-14T00:54:31;2.80;99.90
22145;DHT22;11238;48.730;11.566;2023-02-14T00:56:58;2.90;99.90
22145;DHT22;11238;48.730;11.566;2023-02-14T00:59:24;2.90;99.90
22145;DHT22;11238;48.730;11.566;2023-02-14T01:01:51;2.80;99.90
22145;DHT22;11238;48.730;11.566;2023-02-14T01:04:17;2.80;99.90
22145;DHT22;11238;48.730;11.566;2023-02-14T01:06:44;2.80;99.90
22145;DHT22;11238;48.730;11.566;2023-02-14T01:09:12;2.80;99.90
22145;DHT22;11238;48.730;11.566;2023-02-14T01:11:37;2.80;99.90
22145;DHT22;11238;48.730;11.566;2023-02-14T01:14:04;2.90;99.90
22145;DHT22;11238;48.730;11.566;2023-02-14T01:16:30;2.80;99.90
22145;DHT22;11238;48.730;11.566;2023-02-14T01:18:58;2.70;99.90
22145;DHT22;11238;48.730;11.566;2023-02-14T01:21:28;2.50;99.90
22145;DHT22;11238;48.730;11.566;2023-02-14T01:23:57;2.50;99.90
22145;DHT22;11238;48.730;11.566;2023-02-14T01:26:24;2.50;99.90
22145;DHT22;11238;48.730;11.566;2023-02-14T01:28:50;2.50;99.90
22145;DHT22;11238;48.730;11.566;2023-02-14T01:31:22;2.40;99.90
22145;DHT22;11238;48.730;11.566;2023-02-14T01:33:48;2.30;99.90
22145;DHT22;11238;48.730;11.566;2023-02-14T01:38:59;2.40;99.90
22145;DHT22;11238;48.730;11.566;2023-02-14T01:41:29;2.30;99.90
22145;DHT22;11238;48.730;11.566;2023-02-14T01:44:00;2.20;99.90
22145;DHT22;11238;48.730;11.566;2023-02-14T01:46:29;2.20;99.90
22145;DHT22;11238;48.730;11.566;2023-02-14T01:49:21;2.10;99.90
22145;DHT22;11238;48.730;11.566;2023-02-14T01:51:53;2.10;99.90
22145;DHT22;11238;48.730;11.566;2023-02-14T01:54:22;2.00;99.90
22145;DHT22;11238;48.730;11.566;2023-02-14T01:56:53;2.00;99.90
22145;DHT22;11238;48.730;11.566;2023-02-14T01:59:26;2.00;99.90
22145;DHT22;11238;48.730;11.566;2023-02-14T02:01:53;1.90;99.90
22145;DHT22;11238;48.730;11.566;2023-02-14T02:04:24;1.90;99.90
22145;DHT22;11238;48.730;11.566;2023-02-14T02:06:57;1.90;99.90
22145;DHT22;11238;48.730;11.566;2023-02-14T02:09:36;1.90;99.90
22145;DHT22;11238;48.730;11.566;2023-02-14T02:12:04;1.90;99.90
22145;DHT22;11238;48.730;11.566;2023-02-14T02:14:30;1.90;99.90
22145;DHT22;11238;48.730;11.566;2023-02-14T02:26:00;1.90;99.90
22145;DHT22;11238;48.730;11.566;2023-02-14T02:31:52;1.70;99.90
22145;DHT22;11238;48.730;11.566;2023-02-14T02:34:56;1.70;99.90
22145;DHT22;11238;48.730;11.566;2023-02-14T02:45:42;1.90;99.90
22145;DHT22;11238;48.730;11.566;2023-02-14T02:49:01;1.90;99.90
22145;DHT22;11238;48.730;11.566;2023-02-14T02:51:56;1.90;99.90
22145;DHT22;11238;48.730;11.566;2023-02-14T02:54:47;1.90;99.90
22145;DHT22;11238;48.730;11.566;2023-02-14T02:57:25;1.90;99.90
22145;DHT22;11238;48.730;11.566;2023-02-14T02:59:55;1.80;99.90
22145;DHT22;11238;48.730;11.566;2023-02-14T03:02:30;1.80;99.90
22145;DHT22;11238;48.730;11.566;2023-02-14T03:05:01;1.70;99.90
22145;DHT22;11238;48.730;11.566;2023-02-14T03:07:35;1.70;99.90
22145;DHT22;11238;48.730;11.566;2023-02-14T03:10:36;1.80;99.90
22145;DHT22;11238;48.730;11.566;2023-02-14T03:16:29;1.90;99.90
22145;DHT22;11238;48.730;11.566;2023-02-14T03:19:24;1.80;99.90
22145;DHT22;11238;48.730;11.566;2023-02-14T03:22:33;1.70;99.90
22145;DHT22;11238;48.730;11.566;2023-02-14T03:28:21;1.70;99.90
22145;DHT22;11238;48.730;11.566;2023-02-14T03:31:02;1.70;99.90
22145;DHT22;11238;48.730;11.566;2023-02-14T03:34:14;1.70;99.90
22145;DHT22;11238;48.730;11.566;2023-02-14T03:36:50;1.80;99.90
22145;DHT22;11238;48.730;11.566;2023-02-14T03:39:28;1.90;99.90
22145;DHT22;11238;48.730;11.566;2023-02-14T03:42:15;1.90;99.90
22145;DHT22;11238;48.730;11.566;2023-02-14T03:44:46;2.00;99.90
22145;DHT22;11238;48.730;11.566;2023-02-14T03:47:17;2.00;99.90
22145;DHT22;11238;48.730;11.566;2023-02-14T03:49:53;2.00;99.90
22145;DHT22;11238;48.730;11.566;2023-02-14T03:52:21;2.00;99.90
22145;DHT22;11238;48.730;11.566;2023-02-14T03:54:49;2.00;99.90
22145;DHT22;11238;48.730;11.566;2023-02-14T03:57:29;2.00;99.90
22145;DHT22;11238;48.730;11.566;2023-02-14T03:59:56;2.00;99.90
22145;DHT22;11238;48.730;11.566;2023-02-14T04:02:30;2.00;99.90
22145;DHT22;11238;48.730;11.566;2023-02-14T04:04:59;2.00;99.90
22145;DHT22;11238;48.730;11.566;2023-02-14T04:07:26;1.90;99.90
22145;DHT22;11238;48.730;11.566;2023-02-14T04:09:52;1.90;99.90
22145;DHT22;11238;48.730;11.566;2023-02-14T04:12:18;1.80;99.90
22145;DHT22;11238;48.730;11.566;2023-02-14T04:14:45;1.80;99.90
22145;DHT22;11238;48.730;11.566;2023-02-14T04:17:11;1.80;99.90
22145;DHT22;11238;48.730;11.566;2023-02-14T04:19:55;1.80;99.90
22145;DHT22;11238;48.730;11.566;2023-02-14T04:22:21;1.80;99.90
22145;DHT22;11238;48.730;11.566;2023-02-14T04:24:47;1.70;99.90
22145;DHT22;11238;48.730;11.566;2023-02-14T04:27:13;1.70;99.90
22145;DHT22;11238;48.730;11.566;2023-02-14T04:29:44;1.60;99.90
22145;DHT22;11238;48.730;11.566;2023-02-14T04:32:14;1.50;99.90
22145;DHT22;11238;48.730;11.566;2023-02-14T04:34:40;1.60;99.90
22145;DHT22;11238;48.730;11.566;2023-02-14T04:37:06;1.60;99.90
22145;DHT22;11238;48.730;11.566;2023-02-14T04:39:32;1.60;99.90
22145;DHT22;11238;48.730;11.566;2023-02-14T04:41:58;1.50;99.90
22145;DHT22;11238;48.730;11.566;2023-02-14T04:44:24;1.50;99.90
22145;DHT22;11238;48.730;11.566;2023-02-14T04:46:50;1.30;99.90
22145;DHT22;11238;48.730;11.566;2023-02-14T04:49:17;1.30;99.90
22145;DHT22;11238;48.730;11.566;2023-02-14T04:51:43;1.30;99.90
22145;DHT22;11238;48.730;11.566;2023-02-14T04:54:09;1.20;99.90
22145;DHT22;11238;48.730;11.566;2023-02-14T04:56:34;1.30;99.90
22145;DHT22;11238;48.730;11.566;2023-02-14T04:59:01;1.30;99.90
22145;DHT22;11238;48.730;11.566;2023-02-14T05:01:27;1.30;99.90
22145;DHT22;11238;48.730;11.566;2023-02-14T05:03:53;1.40;99.90
22145;DHT22;11238;48.730;11.566;2023-02-14T05:06:18;1.40;99.90
22145;DHT22;11238;48.730;11.566;2023-02-14T05:08:44;1.40;99.90
22145;DHT22;11238;48.730;11.566;2023-02-14T05:11:11;1.40;99.90
22145;DHT22;11238;48.730;11.566;2023-02-14T05:13:37;1.40;99.90
22145;DHT22;11238;48.730;11.566;2023-02-14T05:16:03;1.30;99.90
22145;DHT22;11238;48.730;11.566;2023-02-14T05:18:30;1.20;99.90
22145;DHT22;11238;48.730;11.566;2023-02-14T05:20:56;1.20;99.90
22145;DHT22;11238;48.730;11.566;2023-02-14T05:23:22;1.30;99.90
22145;DHT22;11238;48.730;11.566;2023-02-14T05:25:49;1.40;99.90
22145;DHT22;11238;48.730;11.566;2023-02-14T05:28:15;1.40;99.90
22145;DHT22;11238;48.730;11.566;2023-02-14T05:30:41;1.30;99.90
22145;DHT22;11238;48.730;11.566;2023-02-14T05:33:07;1.10;99.90
22145;DHT22;11238;48.730;11.566;2023-02-14T05:35:33;1.10;99.90
22145;DHT22;11238;48.730;11.566;2023-02-14T05:37:59;1.20;99.90
22145;DHT22;11238;48.730;11.566;2023-02-14T05:40:26;1.20;99.90
22145;DHT22;11238;48.730;11.566;2023-02-14T05:42:52;1.10;99.90
22145;DHT22;11238;48.730;11.566;2023-02-14T05:45:18;1.10;99.90
22145;DHT22;11238;48.730;11.566;2023-02-14T05:47:46;1.10;99.90
22145;DHT22;11238;48.730;11.566;2023-02-14T05:50:12;1.10;99.90
22145;DHT22;11238;48.730;11.566;2023-02-14T05:52:38;1.00;99.90
22145;DHT22;11238;48.730;11.566;2023-02-14T05:55:05;1.00;99.90
22145;DHT22;11238;48.730;11.566;2023-02-14T05:57:30;1.00;99.90
22145;DHT22;11238;48.730;11.566;2023-02-14T06:00:18;0.90;99.90
22145;DHT22;11238;48.730;11.566;2023-02-14T06:02:44;1.10;99.90
22145;DHT22;11238;48.730;11.566;2023-02-14T06:05:10;1.10;99.90
22145;DHT22;11238;48.730;11.566;2023-02-14T06:07:35;1.20;99.90
22145;DHT22;11238;48.730;11.566;2023-02-14T06:10:01;1.20;99.90
22145;DHT22;11238;48.730;11.566;2023-02-14T06:12:28;1.30;99.90
22145;DHT22;11238;48.730;11.566;2023-02-14T06:14:57;1.30;99.90
22145;DHT22;11238;48.730;11.566;2023-02-14T06:17:23;1.30;99.90
22145;DHT22;11238;48.730;11.566;2023-02-14T06:19:49;1.40;99.90
22145;DHT22;11238;48.730;11.566;2023-02-14T06:22:14;1.40;99.90
22145;DHT22;11238;48.730;11.566;2023-02-14T06:24:41;1.40;99.90
22145;DHT22;11238;48.730;11.566;2023-02-14T06:27:07;1.50;99.90
22145;DHT22;11238;48.730;11.566;2023-02-14T06:29:54;1.50;99.90
22145;DHT22;11238;48.730;11.566;2023-02-14T06:32:19;1.50;99.90
22145;DHT22;11238;48.730;11.566;2023-02-14T06:34:45;1.60;99.90
22145;DHT22;11238;48.730;11.566;2023-02-14T06:37:11;1.60;99.90
22145;DHT22;11238;48.730;11.566;2023-02-14T06:39:36;1.50;99.90
22145;DHT22;11238;48.730;11.566;2023-02-14T06:42:24;1.80;99.90
22145;DHT22;11238;48.730;11.566;2023-02-14T06:44:50;1.80;99.90
22145;DHT22;11238;48.730;11.566;2023-02-14T06:47:16;1.80;99.90
22145;DHT22;11238;48.730;11.566;2023-02-14T06:49:42;1.50;99.90
22145;DHT22;11238;48.730;11.566;2023-02-14T06:52:08;1.50;99.90
22145;DHT22;11238;48.730;11.566;2023-02-14T06:54:34;1.50;99.90
22145;DHT22;11238;48.730;11.566;2023-02-14T06:57:00;1.50;99.90
22145;DHT22;11238;48.730;11.566;2023-02-14T06:59:26;1.50;99.90
22145;DHT22;11238;48.730;11.566;2023-02-14T07:01:52;1.50;99.90
22145;DHT22;11238;48.730;11.566;2023-02-14T07:04:19;1.30;99.90
22145;DHT22;11238;48.730;11.566;2023-02-14T07:06:45;1.20;99.90
22145;DHT22;11238;48.730;11.566;2023-02-14T07:09:11;1.10;99.90
22145;DHT22;11238;48.730;11.566;2023-02-14T07:11:40;1.10;99.90
22145;DHT22;11238;48.730;11.566;2023-02-14T07:14:05;1.10;99.90
22145;DHT22;11238;48.730;11.566;2023-02-14T07:16:31;1.10;99.90
22145;DHT22;11238;48.730;11.566;2023-02-14T07:18:57;1.10;99.90
22145;DHT22;11238;48.730;11.566;2023-02-14T07:21:24;1.10;99.90
22145;DHT22;11238;48.730;11.566;2023-02-14T07:23:50;1.10;99.90
22145;DHT22;11238;48.730;11.566;2023-02-14T07:26:16;1.10;99.90
22145;DHT22;11238;48.730;11.566;2023-02-14T07:28:47;1.10;99.90
22145;DHT22;11238;48.730;11.566;2023-02-14T07:31:16;1.20;99.90
22145;DHT22;11238;48.730;11.566;2023-02-14T07:33:43;1.30;99.90
22145;DHT22;11238;48.730;11.566;2023-02-14T07:36:09;1.30;99.90
22145;DHT22;11238;48.730;11.566;2023-02-14T07:38:56;1.10;99.90
22145;DHT22;11238;48.730;11.566;2023-02-14T07:41:22;1.00;99.90
22145;DHT22;11238;48.730;11.566;2023-02-14T07:43:48;1.10;99.90
22145;DHT22;11238;48.730;11.566;2023-02-14T07:46:14;1.00;99.90
22145;DHT22;11238;48.730;11.566;2023-02-14T07:48:42;1.10;99.90
22145;DHT22;11238;48.730;11.566;2023-02-14T07:51:08;1.10;99.90
22145;DHT22;11238;48.730;11.566;2023-02-14T07:53:34;1.00;99.90
22145;DHT22;11238;48.730;11.566;2023-02-14T07:56:00;1.10;99.90
22145;DHT22;11238;48.730;11.566;2023-02-14T07:58:26;1.10;99.90
22145;DHT22;11238;48.730;11.566;2023-02-14T08:00:52;1.10;99.90
22145;DHT22;11238;48.730;11.566;2023-02-14T08:03:17;1.20;99.90
22145;DHT22;11238;48.730;11.566;2023-02-14T08:05:44;1.20;99.90
22145;DHT22;11238;48.730;11.566;2023-02-14T08:08:09;1.30;99.90
22145;DHT22;11238;48.730;11.566;2023-02-14T08:10:36;1.20;99.90
22145;DHT22;11238;48.730;11.566;2023-02-14T08:13:02;1.30;99.90
22145;DHT22;11238;48.730;11.566;2023-02-14T08:15:33;1.20;99.90
22145;DHT22;11238;48.730;11.566;2023-02-14T08:18:19;1.20;99.90
22145;DHT22;11238;48.730;11.566;2023-02-14T08:20:45;1.00;99.90
22145;DHT22;11238;48.730;11.566;2023-02-14T08:23:13;0.80;99.90
22145;DHT22;11238;48.730;11.566;2023-02-14T08:25:41;0.80;99.90
22145;DHT22;11238;48.730;11.566;2023-02-14T08:28:08;0.80;99.90
22145;DHT22;11238;48.730;11.566;2023-02-14T08:30:35;0.90;99.90
22145;DHT22;11238;48.730;11.566;2023-02-14T08:33:03;0.90;99.90
22145;DHT22;11238;48.730;11.566;2023-02-14T08:35:29;0.80;99.90
22145;DHT22;11238;48.730;11.566;2023-02-14T08:37:55;0.80;99.90
22145;DHT22;11238;48.730;11.566;2023-02-14T08:40:21;0.70;99.90
22145;DHT22;11238;48.730;11.566;2023-02-14T08:42:47;0.60;99.90
22145;DHT22;11238;48.730;11.566;2023-02-14T08:45:13;0.50;99.90
22145;DHT22;11238;48.730;11.566;2023-02-14T08:47:39;0.60;99.90
22145;DHT22;11238;48.730;11.566;2023-02-14T08:50:10;0.70;99.90
22145;DHT22;11238;48.730;11.566;2023-02-14T08:52:38;0.80;99.90
22145;DHT22;11238;48.730;11.566;2023-02-14T08:55:04;0.90;99.90
22145;DHT22;11238;48.730;11.566;2023-02-14T08:57:31;0.70;99.90
22145;DHT22;11238;48.730;11.566;2023-02-14T08:59:57;0.80;99.90
22145;DHT22;11238;48.730;11.566;2023-02-14T09:02:23;0.70;99.90
22145;DHT22;11238;48.730;11.566;2023-02-14T09:04:49;0.80;99.90
22145;DHT22;11238;48.730;11.566;2023-02-14T09:07:15;0.80;99.90
22145;DHT22;11238;48.730;11.566;2023-02-14T09:09:41;0.80;99.90
22145;DHT22;11238;48.730;11.566;2023-02-14T09:12:09;0.90;99.90
22145;DHT22;11238;48.730;11.566;2023-02-14T09:14:36;0.80;99.90
22145;DHT22;11238;48.730;11.566;2023-02-14T09:17:03;0.80;99.90
22145;DHT22;11238;48.730;11.566;2023-02-14T09:19:35;0.90;99.90
22145;DHT22;11238;48.730;11.566;2023-02-14T09:22:03;0.90;99.90
22145;DHT22;11238;48.730;11.566;2023-02-14T09:24:30;0.90;99.90
22145;DHT22;11238;48.730;11.566;2023-02-14T09:26:57;0.90;99.90
22145;DHT22;11238;48.730;11.566;2023-02-14T09:29:24;0.90;99.90
22145;DHT22;11238;48.730;11.566;2023-02-14T09:31:58;1.10;99.90
22145;DHT22;11238;48.730;11.566;2023-02-14T09:34:25;1.00;99.90
22145;DHT22;11238;48.730;11.566;2023-02-14T09:37:11;1.00;99.90
22145;DHT22;11238;48.730;11.566;2023-02-14T09:39:37;0.70;99.90
22145;DHT22;11238;48.730;11.566;2023-02-14T09:47:22;0.80;99.90
22145;DHT22;11238;48.730;11.566;2023-02-14T09:49:53;0.90;99.90
22145;DHT22;11238;48.730;11.566;2023-02-14T09:52:21;0.80;99.90
22145;DHT22;11238;48.730;11.566;2023-02-14T09:54:54;0.80;99.90
22145;DHT22;11238;48.730;11.566;2023-02-14T09:57:35;0.80;99.90
22145;DHT22;11238;48.730;11.566;2023-02-14T10:00:12;0.90;99.90
22145;DHT22;11238;48.730;11.566;2023-02-14T10:05:34;0.80;99.90
22145;DHT22;11238;48.730;11.566;2023-02-14T10:10:48;1.00;99.90
22145;DHT22;11238;48.730;11.566;2023-02-14T10:15:48;1.00;99.90
22145;DHT22;11238;48.730;11.566;2023-02-14T10:18:21;1.10;99.90
22145;DHT22;11238;48.730;11.566;2023-02-14T10:20:59;1.20;99.90
22145;DHT22;11238;48.730;11.566;2023-02-14T10:23:32;1.20;99.90
22145;DHT22;11238;48.730;11.566;2023-02-14T10:26:04;1.30;99.90
22145;DHT22;11238;48.730;11.566;2023-02-14T10:31:23;1.50;99.90
22145;DHT22;11238;48.730;11.566;2023-02-14T10:37:12;1.70;99.90
22145;DHT22;11238;48.730;11.566;2023-02-14T10:45:29;1.20;99.90
22145;DHT22;11238;48.730;11.566;2023-02-14T10:53:27;1.10;99.90
22145;DHT22;11238;48.730;11.566;2023-02-14T10:56:15;1.20;99.90
22145;DHT22;11238;48.730;11.566;2023-02-14T10:58:45;1.20;99.90
22145;DHT22;11238;48.730;11.566;2023-02-14T11:01:15;1.20;99.90
22145;DHT22;11238;48.730;11.566;2023-02-14T11:03:57;1.40;99.90
22145;DHT22;11238;48.730;11.566;2023-02-14T11:06:36;1.30;99.90
22145;DHT22;11238;48.730;11.566;2023-02-14T11:09:02;1.50;99.90
22145;DHT22;11238;48.730;11.566;2023-02-14T11:11:37;1.60;99.90
22145;DHT22;11238;48.730;11.566;2023-02-14T11:14:18;1.60;99.90
22145;DHT22;11238;48.730;11.566;2023-02-14T11:16:45;1.60;99.90
22145;DHT22;11238;48.730;11.566;2023-02-14T11:19:23;1.50;99.90
22145;DHT22;11238;48.730;11.566;2023-02-14T11:21:51;1.60;99.90
22145;DHT22;11238;48.730;11.566;2023-02-14T11:24:32;1.50;99.90
22145;DHT22;11238;48.730;11.566;2023-02-14T11:34:55;2.10;99.90
22145;DHT22;11238;48.730;11.566;2023-02-14T11:37:31;2.10;99.90
22145;DHT22;11238;48.730;11.566;2023-02-14T11:40:00;2.20;99.90
22145;DHT22;11238;48.730;11.566;2023-02-14T11:42:45;2.20;99.90
22145;DHT22;11238;48.730;11.566;2023-02-14T11:45:36;2.30;99.90
22145;DHT22;11238;48.730;11.566;2023-02-14T11:50:41;2.40;99.90
22145;DHT22;11238;48.730;11.566;2023-02-14T11:53:10;2.40;99.90
22145;DHT22;11238;48.730;11.566;2023-02-14T11:55:37;2.50;99.90
22145;DHT22;11238;48.730;11.566;2023-02-14T11:58:05;2.50;99.90
22145;DHT22;11238;48.730;11.566;2023-02-14T12:00:33;2.40;99.90
22145;DHT22;11238;48.730;11.566;2023-02-14T12:03:02;2.50;99.90
22145;DHT22;11238;48.730;11.566;2023-02-14T12:05:34;2.50;99.90
22145;DHT22;11238;48.730;11.566;2023-02-14T12:08:06;2.60;99.90
22145;DHT22;11238;48.730;11.566;2023-02-14T12:10:37;2.60;99.90
22145;DHT22;11238;48.730;11.566;2023-02-14T12:15:35;2.70;99.90
22145;DHT22;11238;48.730;11.566;2023-02-14T12:20:43;2.70;99.90
22145;DHT22;11238;48.730;11.566;2023-02-14T12:23:27;2.70;99.90
22145;DHT22;11238;48.730;11.566;2023-02-14T12:26:02;2.70;99.90
22145;DHT22;11238;48.730;11.566;2023-02-14T12:28:42;2.70;99.90
22145;DHT22;11238;48.730;11.566;2023-02-14T12:31:11;2.70;99.90
22145;DHT22;11238;48.730;11.566;2023-02-14T12:33:39;2.70;99.90
22145;DHT22;11238;48.730;11.566;2023-02-14T12:36:15;2.70;99.90
22145;DHT22;11238;48.730;11.566;2023-02-14T12:41:46;2.80;99.90
22145;DHT22;11238;48.730;11.566;2023-02-14T12:47:51;2.90;99.90
22145;DHT22;11238;48.730;11.566;2023-02-14T12:50:33;2.90;99.90
22145;DHT22;11238;48.730;11.566;2023-02-14T12:53:38;2.90;99.90
22145;DHT22;11238;48.730;11.566;2023-02-14T13:04:54;2.90;99.90
22145;DHT22;11238;48.730;11.566;2023-02-14T13:09:56;2.80;99.90
22145;DHT22;11238;48.730;11.566;2023-02-14T13:12:33;2.90;99.90
22145;DHT22;11238;48.730;11.566;2023-02-14T13:15:41;2.50;99.90
22145;DHT22;11238;48.730;11.566;2023-02-14T13:20:37;2.60;99.90
22145;DHT22;11238;48.730;11.566;2023-02-14T13:23:10;2.70;99.90
22145;DHT22;11238;48.730;11.566;2023-02-14T13:25:41;2.80;99.90
22145;DHT22;11238;48.730;11.566;2023-02-14T13:28:14;2.80;99.90
22145;DHT22;11238;48.730;11.566;2023-02-14T13:30:40;2.80;99.90
22145;DHT22;11238;48.730;11.566;2023-02-14T13:33:23;2.90;99.90
22145;DHT22;11238;48.730;11.566;2023-02-14T13:35:54;2.80;99.90
22145;DHT22;11238;48.730;11.566;2023-02-14T13:38:22;2.40;99.90
22145;DHT22;11238;48.730;11.566;2023-02-14T13:40:48;2.50;99.90
22145;DHT22;11238;48.730;11.566;2023-02-14T13:46:10;2.70;99.90
22145;DHT22;11238;48.730;11.566;2023-02-14T13:48:37;2.90;99.90
22145;DHT22;11238;48.730;11.566;2023-02-14T13:51:08;3.00;99.90
22145;DHT22;11238;48.730;11.566;2023-02-14T13:58:56;3.10;99.90
22145;DHT22;11238;48.730;11.566;2023-02-14T14:04:02;3.00;99.90
22145;DHT22;11238;48.730;11.566;2023-02-14T14:12:35;3.10;99.90
22145;DHT22;11238;48.730;11.566;2023-02-14T14:17:37;3.30;99.90
22145;DHT22;11238;48.730;11.566;2023-02-14T14:22:50;3.40;99.90
22145;DHT22;11238;48.730;11.566;2023-02-14T14:25:33;3.40;99.90
22145;DHT22;11238;48.730;11.566;2023-02-14T14:27:59;3.40;99.90
22145;DHT22;11238;48.730;11.566;2023-02-14T14:30:30;3.50;99.90
22145;DHT22;11238;48.730;11.566;2023-02-14T14:33:21;3.40;99.90
22145;DHT22;11238;48.730;11.566;2023-02-14T14:35:53;3.40;99.90
22145;DHT22;11238;48.730;11.566;2023-02-14T14:38:20;3.40;99.90
22145;DHT22;11238;48.730;11.566;2023-02-14T14:40:47;3.50;99.90
22145;DHT22;11238;48.730;11.566;2023-02-14T14:43:37;3.40;99.90
22145;DHT22;11238;48.730;11.566;2023-02-14T14:46:02;3.50;99.90
22145;DHT22;11238;48.730;11.566;2023-02-14T14:48:32;3.40;99.90
22145;DHT22;11238;48.730;11.566;2023-02-14T14:51:02;3.40;99.90
22145;DHT22;11238;48.730;11.566;2023-02-14T14:54:00;3.40;99.90
22145;DHT22;11238;48.730;11.566;2023-02-14T14:56:56;3.50;99.90
22145;DHT22;11238;48.730;11.566;2023-02-14T14:59:32;3.50;99.90
22145;DHT22;11238;48.730;11.566;2023-02-14T15:02:05;3.40;99.90
22145;DHT22;11238;48.730;11.566;2023-02-14T15:04:33;3.50;99.90
22145;DHT22;11238;48.730;11.566;2023-02-14T15:07:32;3.50;99.90
22145;DHT22;11238;48.730;11.566;2023-02-14T15:09:59;3.50;99.90
22145;DHT22;11238;48.730;11.566;2023-02-14T15:12:25;3.40;99.90
22145;DHT22;11238;48.730;11.566;2023-02-14T15:15:11;3.40;99.90
22145;DHT22;11238;48.730;11.566;2023-02-14T15:17:38;3.40;99.90
22145;DHT22;11238;48.730;11.566;2023-02-14T15:20:16;3.40;99.90
22145;DHT22;11238;48.730;11.566;2023-02-14T15:22:45;3.40;99.90
22145;DHT22;11238;48.730;11.566;2023-02-14T15:25:20;3.30;99.90
22145;DHT22;11238;48.730;11.566;2023-02-14T15:27:46;3.40;99.90
22145;DHT22;11238;48.730;11.566;2023-02-14T15:32:45;3.30;99.90
22145;DHT22;11238;48.730;11.566;2023-02-14T15:35:14;3.30;99.90
22145;DHT22;11238;48.730;11.566;2023-02-14T15:37:44;3.40;99.90
22145;DHT22;11238;48.730;11.566;2023-02-14T15:40:20;3.40;99.90
22145;DHT22;11238;48.730;11.566;2023-02-14T15:42:48;3.40;99.90
22145;DHT22;11238;48.730;11.566;2023-02-14T15:45:16;3.20;99.90
22145;DHT22;11238;48.730;11.566;2023-02-14T15:47:46;3.00;99.90
22145;DHT22;11238;48.730;11.566;2023-02-14T15:50:19;3.20;99.90
22145;DHT22;11238;48.730;11.566;2023-02-14T15:52:47;3.20;99.90
22145;DHT22;11238;48.730;11.566;2023-02-14T15:55:17;3.20;99.90
22145;DHT22;11238;48.730;11.566;2023-02-14T15:57:49;3.10;99.90
22145;DHT22;11238;48.730;11.566;2023-02-14T16:00:19;2.80;99.90
22145;DHT22;11238;48.730;11.566;2023-02-14T16:02:51;2.60;99.90
22145;DHT22;11238;48.730;11.566;2023-02-14T16:05:23;2.70;99.90
22145;DHT22;11238;48.730;11.566;2023-02-14T16:08:35;2.60;99.90
22145;DHT22;11238;48.730;11.566;2023-02-14T16:13:40;2.70;99.90
22145;DHT22;11238;48.730;11.566;2023-02-14T16:16:08;2.70;99.90
22145;DHT22;11238;48.730;11.566;2023-02-14T16:18:44;2.80;99.90
22145;DHT22;11238;48.730;11.566;2023-02-14T16:23:47;2.80;99.90
22145;DHT22;11238;48.730;11.566;2023-02-14T16:26:42;2.80;99.90
22145;DHT22;11238;48.730;11.566;2023-02-14T16:29:14;2.80;99.90
22145;DHT22;11238;48.730;11.566;2023-02-14T16:31:45;2.80;99.90
22145;DHT22;11238;48.730;11.566;2023-02-14T16:34:12;2.80;99.90
22145;DHT22;11238;48.730;11.566;2023-02-14T16:36:38;2.50;99.90
22145;DHT22;11238;48.730;11.566;2023-02-14T16:39:05;2.50;99.90
22145;DHT22;11238;48.730;11.566;2023-02-14T16:41:33;2.40;99.90
22145;DHT22;11238;48.730;11.566;2023-02-14T16:43:59;2.40;99.90
22145;DHT22;11238;48.730;11.566;2023-02-14T16:46:31;2.40;99.90
22145;DHT22;11238;48.730;11.566;2023-02-14T16:48:57;2.50;99.90
22145;DHT22;11238;48.730;11.566;2023-02-14T16:51:26;2.50;99.90
22145;DHT22;11238;48.730;11.566;2023-02-14T16:58:21;2.60;99.90
22145;DHT22;11238;48.730;11.566;2023-02-14T17:00:48;2.50;99.90
22145;DHT22;11238;48.730;11.566;2023-02-14T17:03:40;2.50;99.90
22145;DHT22;11238;48.730;11.566;2023-02-14T17:07:27;2.40;99.90
22145;DHT22;11238;48.730;11.566;2023-02-14T17:13:26;2.40;99.90
22145;DHT22;11238;48.730;11.566;2023-02-14T17:15:53;2.30;99.90
22145;DHT22;11238;48.730;11.566;2023-02-14T17:18:20;2.40;99.90
22145;DHT22;11238;48.730;11.566;2023-02-14T17:20:47;2.40;99.90
22145;DHT22;11238;48.730;11.566;2023-02-14T17:23:13;2.40;99.90
22145;DHT22;11238;48.730;11.566;2023-02-14T17:25:40;2.40;99.90
22145;DHT22;11238;48.730;11.566;2023-02-14T17:28:06;2.40;99.90
22145;DHT22;11238;48.730;11.566;2023-02-14T17:30:32;2.40;99.90
22145;DHT22;11238;48.730;11.566;2023-02-14T17:32:58;2.30;99.90
22145;DHT22;11238;48.730;11.566;2023-02-14T17:35:24;2.30;99.90
22145;DHT22;11238;48.730;11.566;2023-02-14T17:37:50;2.30;99.90
22145;DHT22;11238;48.730;11.566;2023-02-14T17:40:19;2.20;99.90
22145;DHT22;11238;48.730;11.566;2023-02-14T17:42:45;2.20;99.90
22145;DHT22;11238;48.730;11.566;2023-02-14T17:45:11;2.20;99.90
22145;DHT22;11238;48.730;11.566;2023-02-14T17:47:38;2.20;99.90
22145;DHT22;11238;48.730;11.566;2023-02-14T17:50:04;2.20;99.90
22145;DHT22;11238;48.730;11.566;2023-02-14T17:52:31;2.10;99.90
22145;DHT22;11238;48.730;11.566;2023-02-14T17:54:57;2.10;99.90
22145;DHT22;11238;48.730;11.566;2023-02-14T17:57:23;2.10;99.90
22145;DHT22;11238;48.730;11.566;2023-02-14T17:59:49;1.90;99.90
22145;DHT22;11238;48.730;11.566;2023-02-14T18:02:15;1.70;99.90
22145;DHT22;11238;48.730;11.566;2023-02-14T18:04:41;1.70;99.90
22145;DHT22;11238;48.730;11.566;2023-02-14T18:07:06;1.60;99.90